createdAt,value
2018-12-02T00:00:00.533Z,9.96
2018-12-02T00:01:00.525Z,10.04
2018-12-02T00:02:00.518Z,9.94
2018-12-02T00:03:00.569Z,10.02
2018-12-02T00:04:00.493Z,9.93
2018-12-02T00:05:00.481Z,9.90
2018-12-02T00:06:00.469Z,9.93
2018-12-02T00:07:00.459Z,10.01
2018-12-02T00:08:01.055Z,9.94
2018-12-02T00:09:00.442Z,9.90
2018-12-02T00:10:00.427Z,9.97
2018-12-02T00:11:00.415Z,10.05
2018-12-02T00:12:00.404Z,10.07
2018-12-02T00:13:00.462Z,9.99
2018-12-02T00:14:00.381Z,9.97
2018-12-02T00:15:00.390Z,10.05
2018-12-02T00:16:00.362Z,9.97
2018-12-02T00:17:00.352Z,9.99
2018-12-02T00:18:00.404Z,9.96
2018-12-02T00:19:00.329Z,9.97
2018-12-02T00:20:00.320Z,10.01
2018-12-02T00:21:00.305Z,10.01
2018-12-02T00:22:00.297Z,9.97
2018-12-02T00:23:00.349Z,10.01
2018-12-02T00:24:00.275Z,9.90
2018-12-02T00:25:00.262Z,9.94
2018-12-02T00:26:00.256Z,9.90
2018-12-02T00:27:00.243Z,9.99
2018-12-02T00:28:00.294Z,9.97
2018-12-02T00:29:00.990Z,9.99
2018-12-02T00:30:00.210Z,9.96
2018-12-02T00:31:00.201Z,9.94
2018-12-02T00:32:00.189Z,9.96
2018-12-02T00:33:00.241Z,9.96
2018-12-02T00:34:00.169Z,9.94
2018-12-02T00:35:00.157Z,9.94
2018-12-02T00:36:00.150Z,9.94
2018-12-02T00:37:00.136Z,9.94
2018-12-02T00:38:00.188Z,9.94
2018-12-02T00:39:00.119Z,9.96
2018-12-02T00:40:00.100Z,9.93
2018-12-02T00:41:00.094Z,9.93
2018-12-02T00:42:00.080Z,9.96
2018-12-02T00:43:00.137Z,9.93
2018-12-02T00:44:00.058Z,9.89
2018-12-02T00:45:00.052Z,9.93
2018-12-02T00:46:00.039Z,9.90
2018-12-02T00:47:00.026Z,9.91
2018-12-02T00:48:00.091Z,9.99
2018-12-02T00:49:00.011Z,9.97
2018-12-02T00:50:00.979Z,9.94
2018-12-02T00:50:59.986Z,9.96
2018-12-02T00:51:59.976Z,10.04
2018-12-02T00:53:00.060Z,10.01
2018-12-02T00:53:59.952Z,10.02
2018-12-02T00:55:00.012Z,10.04
2018-12-02T00:55:59.933Z,9.94
2018-12-02T00:56:59.922Z,10.02
2018-12-02T00:57:59.910Z,9.99
2018-12-02T00:58:59.961Z,10.02
2018-12-02T00:59:59.891Z,9.94
2018-12-02T01:00:59.875Z,9.97
2018-12-02T01:01:59.868Z,10.02
2018-12-02T01:02:59.856Z,9.97
2018-12-02T01:03:59.908Z,9.97
2018-12-02T01:04:59.838Z,9.97
2018-12-02T01:05:59.831Z,9.97
2018-12-02T01:06:59.815Z,9.94
2018-12-02T01:07:59.802Z,10.01
2018-12-02T01:08:59.855Z,10.01
2018-12-02T01:09:59.782Z,10.05
2018-12-02T01:11:00.472Z,9.93
2018-12-02T01:11:59.761Z,9.94
2018-12-02T01:12:59.748Z,9.96
2018-12-02T01:13:59.798Z,9.99
2018-12-02T01:14:59.725Z,10.05
2018-12-02T01:15:59.715Z,9.97
2018-12-02T01:16:59.704Z,9.99
2018-12-02T01:17:59.693Z,10.05
2018-12-02T01:18:59.747Z,9.99
2018-12-02T01:19:59.671Z,10.02
2018-12-02T01:20:59.662Z,10.01
2018-12-02T01:21:59.648Z,10.01
2018-12-02T01:22:59.642Z,10.05
2018-12-02T01:23:59.693Z,10.08
2018-12-02T01:24:59.632Z,10.04
2018-12-02T01:25:59.604Z,10.04
2018-12-02T01:26:59.594Z,10.01
2018-12-02T01:27:59.585Z,10.07
2018-12-02T01:28:59.644Z,10.08
2018-12-02T01:29:59.561Z,10.12
2018-12-02T01:30:59.616Z,10.09
2018-12-02T01:32:00.470Z,10.08
2018-12-02T01:32:59.529Z,10.09
2018-12-02T01:33:59.519Z,10.17
2018-12-02T01:34:59.571Z,10.12
2018-12-02T01:35:59.499Z,10.12
2018-12-02T01:36:59.495Z,10.14
2018-12-02T01:37:59.475Z,10.14
2018-12-02T01:38:59.465Z,10.09
2018-12-02T01:39:59.517Z,10.17
2018-12-02T01:40:59.443Z,10.08
2018-12-02T01:41:59.436Z,10.20
2018-12-02T01:42:59.428Z,10.18
2018-12-02T01:43:59.415Z,10.14
2018-12-02T01:44:59.466Z,10.11
2018-12-02T01:45:59.389Z,10.27
2018-12-02T01:46:59.379Z,10.22
2018-12-02T01:47:59.367Z,10.22
2018-12-02T01:48:59.358Z,10.25
2018-12-02T01:49:59.410Z,10.29
2018-12-02T01:50:59.338Z,10.22
2018-12-02T01:51:59.326Z,10.15
2018-12-02T01:52:59.968Z,10.25
2018-12-02T01:53:59.304Z,10.29
2018-12-02T01:54:59.367Z,10.26
2018-12-02T01:55:59.284Z,10.33
2018-12-02T01:56:59.270Z,10.38
2018-12-02T01:57:59.264Z,10.34
2018-12-02T01:58:59.256Z,10.33
2018-12-02T01:59:59.240Z,10.33
2018-12-02T02:00:59.294Z,10.34
2018-12-02T02:01:59.220Z,10.36
2018-12-02T02:02:59.210Z,10.40
2018-12-02T02:03:59.195Z,10.33
2018-12-02T02:04:59.184Z,10.33
2018-12-02T02:05:59.235Z,10.32
2018-12-02T02:06:59.164Z,10.33
2018-12-02T02:07:59.153Z,10.44
2018-12-02T02:08:59.147Z,10.40
2018-12-02T02:09:59.132Z,10.44
2018-12-02T02:10:59.184Z,10.34
2018-12-02T02:11:59.111Z,10.40
2018-12-02T02:12:59.097Z,10.47
2018-12-02T02:14:00.996Z,10.45
2018-12-02T02:14:59.077Z,10.48
2018-12-02T02:15:59.127Z,10.47
2018-12-02T02:16:59.057Z,10.55
2018-12-02T02:17:59.043Z,10.42
2018-12-02T02:18:59.045Z,10.52
2018-12-02T02:19:59.025Z,10.51
2018-12-02T02:20:59.073Z,10.52
2018-12-02T02:21:59.001Z,10.56
2018-12-02T02:22:58.989Z,10.63
2018-12-02T02:23:58.977Z,10.56
2018-12-02T02:24:58.973Z,10.59
2018-12-02T02:25:59.017Z,10.56
2018-12-02T02:26:58.950Z,10.63
2018-12-02T02:27:58.933Z,10.56
2018-12-02T02:28:58.940Z,10.53
2018-12-02T02:29:58.912Z,10.60
2018-12-02T02:30:58.970Z,10.66
2018-12-02T02:31:58.891Z,10.59
2018-12-02T02:32:58.882Z,10.60
2018-12-02T02:33:58.871Z,10.53
2018-12-02T02:34:59.466Z,10.59
2018-12-02T02:35:58.913Z,10.66
2018-12-02T02:36:58.859Z,10.64
2018-12-02T02:37:58.829Z,10.59
2018-12-02T02:38:58.818Z,10.56
2018-12-02T02:39:58.805Z,10.63
2018-12-02T02:40:58.862Z,10.61
2018-12-02T02:41:58.784Z,10.47
2018-12-02T02:42:58.772Z,10.51
2018-12-02T02:43:58.776Z,10.53
2018-12-02T02:44:58.752Z,10.45
2018-12-02T02:45:58.803Z,10.40
2018-12-02T02:46:58.734Z,10.42
2018-12-02T02:47:58.722Z,10.33
2018-12-02T02:48:58.713Z,10.45
2018-12-02T02:49:58.698Z,10.27
2018-12-02T02:50:58.752Z,10.26
2018-12-02T02:51:58.681Z,10.25
2018-12-02T02:52:58.672Z,10.26
2018-12-02T02:53:58.660Z,10.18
2018-12-02T02:54:58.647Z,10.15
2018-12-02T02:55:59.034Z,10.20
2018-12-02T02:56:58.623Z,9.99
2018-12-02T02:57:58.613Z,9.99
2018-12-02T02:58:58.599Z,9.96
2018-12-02T02:59:58.591Z,9.91
2018-12-02T03:00:58.647Z,9.89
2018-12-02T03:01:58.566Z,9.74
2018-12-02T03:02:58.555Z,9.72
2018-12-02T03:03:58.551Z,9.69
2018-12-02T03:04:58.548Z,9.74
2018-12-02T03:05:58.589Z,9.74
2018-12-02T03:06:58.537Z,9.69
2018-12-02T03:07:58.507Z,9.71
2018-12-02T03:08:58.500Z,9.60
2018-12-02T03:09:58.489Z,9.57
2018-12-02T03:10:58.535Z,9.69
2018-12-02T03:11:58.487Z,9.64
2018-12-02T03:12:58.451Z,9.64
2018-12-02T03:13:58.442Z,9.61
2018-12-02T03:14:58.472Z,9.51
2018-12-02T03:15:58.489Z,9.56
2018-12-02T03:17:00.958Z,9.51
2018-12-02T03:17:58.400Z,9.46
2018-12-02T03:18:58.391Z,9.46
2018-12-02T03:19:58.376Z,9.43
2018-12-02T03:20:58.432Z,9.56
2018-12-02T03:21:58.357Z,9.50
2018-12-02T03:22:58.346Z,9.48
2018-12-02T03:23:58.343Z,9.43
2018-12-02T03:24:58.325Z,9.42
2018-12-02T03:25:58.387Z,9.42
2018-12-02T03:26:58.301Z,9.40
2018-12-02T03:27:58.298Z,9.36
2018-12-02T03:28:58.317Z,9.38
2018-12-02T03:29:58.279Z,9.38
2018-12-02T03:30:58.343Z,9.36
2018-12-02T03:31:58.545Z,9.38
2018-12-02T03:32:58.258Z,9.38
2018-12-02T03:34:07.422Z,9.35
2018-12-02T03:34:59.446Z,9.24
2018-12-02T03:35:58.338Z,9.26
2018-12-02T03:36:58.260Z,9.29
2018-12-02T03:37:58.998Z,9.35
2018-12-02T03:38:58.187Z,9.28
2018-12-02T03:39:58.161Z,9.35
2018-12-02T03:40:58.152Z,9.36
2018-12-02T03:41:58.219Z,9.29
2018-12-02T03:42:58.132Z,9.26
2018-12-02T03:43:58.117Z,9.28
2018-12-02T03:44:58.159Z,9.26
2018-12-02T03:45:58.130Z,9.21
2018-12-02T03:46:58.678Z,9.21
2018-12-02T03:47:58.072Z,9.28
2018-12-02T03:48:58.066Z,9.21
2018-12-02T03:49:58.064Z,9.11
2018-12-02T03:50:58.080Z,9.18
2018-12-02T03:51:58.159Z,9.15
2018-12-02T03:52:58.050Z,9.05
2018-12-02T03:53:58.015Z,9.17
2018-12-02T03:55:03.019Z,9.13
2018-12-02T03:55:57.990Z,9.05
2018-12-02T03:56:58.062Z,9.18
2018-12-02T03:57:57.969Z,9.14
2018-12-02T03:58:58.014Z,9.04
2018-12-02T03:59:57.953Z,9.05
2018-12-02T04:00:57.938Z,9.01
2018-12-02T04:01:58.129Z,9.02
2018-12-02T04:02:57.916Z,8.99
2018-12-02T04:03:57.905Z,9.11
2018-12-02T04:04:58.005Z,9.04
2018-12-02T04:05:57.886Z,9.08
2018-12-02T04:06:57.940Z,9.01
2018-12-02T04:07:57.866Z,9.10
2018-12-02T04:09:06.496Z,9.01
2018-12-02T04:09:57.935Z,9.02
2018-12-02T04:10:57.986Z,9.02
2018-12-02T04:11:57.911Z,9.10
2018-12-02T04:12:57.810Z,9.05
2018-12-02T04:13:57.857Z,9.05
2018-12-02T04:14:57.788Z,9.02
2018-12-02T04:15:58.532Z,8.94
2018-12-02T04:16:57.829Z,9.08
2018-12-02T04:17:57.768Z,9.02
2018-12-02T04:18:57.747Z,9.01
2018-12-02T04:19:57.735Z,9.08
2018-12-02T04:20:57.724Z,8.94
2018-12-02T04:21:57.784Z,9.10
2018-12-02T04:22:57.708Z,9.04
2018-12-02T04:23:57.688Z,8.95
2018-12-02T04:24:57.682Z,9.02
2018-12-02T04:25:57.674Z,8.92
2018-12-02T04:26:57.751Z,9.05
2018-12-02T04:27:57.669Z,8.92
2018-12-02T04:28:57.640Z,9.02
2018-12-02T04:29:57.631Z,8.94
2018-12-02T04:40:36.158Z,9.13
2018-12-02T04:41:24.696Z,8.91
2018-12-02T04:42:15.648Z,9.04
2018-12-02T04:45:41.682Z,9.01
2018-12-02T04:47:50.730Z,9.10
2018-12-02T04:50:06.614Z,9.08
2018-12-02T04:51:07.805Z,9.04
2018-12-02T04:52:06.496Z,9.05
2018-12-02T04:53:06.536Z,9.05
2018-12-02T04:54:06.366Z,8.98
2018-12-02T04:55:06.370Z,9.02
2018-12-02T04:56:06.348Z,9.05
2018-12-02T04:57:06.879Z,8.96
2018-12-02T04:58:06.324Z,9.14
2018-12-02T04:59:06.314Z,9.02
2018-12-02T05:00:06.304Z,9.08
2018-12-02T05:01:06.298Z,9.02
2018-12-02T05:02:06.346Z,9.17
2018-12-02T05:03:06.274Z,9.01
2018-12-02T05:04:06.265Z,9.14
2018-12-02T05:05:06.254Z,9.13
2018-12-02T05:06:06.248Z,8.99
2018-12-02T05:07:06.293Z,9.17
2018-12-02T05:08:06.216Z,9.18
2018-12-02T05:09:06.806Z,9.13
2018-12-02T05:10:06.200Z,9.10
2018-12-02T05:11:06.185Z,9.05
2018-12-02T05:12:06.240Z,9.15
2018-12-02T05:13:06.172Z,9.08
2018-12-02T05:14:06.150Z,9.17
2018-12-02T05:15:06.143Z,9.13
2018-12-02T05:16:06.129Z,9.14
2018-12-02T05:17:06.183Z,9.10
2018-12-02T05:18:06.105Z,9.14
2018-12-02T05:19:06.101Z,9.08
2018-12-02T05:20:06.090Z,9.13
2018-12-02T05:21:06.083Z,9.05
2018-12-02T05:22:06.140Z,9.08
2018-12-02T05:23:06.059Z,9.11
2018-12-02T05:24:06.042Z,9.17
2018-12-02T05:25:06.041Z,9.10
2018-12-02T05:26:06.024Z,9.15
2018-12-02T05:27:06.079Z,9.10
2018-12-02T05:28:06.004Z,9.17
2018-12-02T05:29:05.990Z,9.11
2018-12-02T05:30:06.796Z,9.20
2018-12-02T05:31:05.973Z,9.20
2018-12-02T05:32:06.031Z,9.17
2018-12-02T05:33:05.944Z,9.15
2018-12-02T05:34:05.935Z,9.18
2018-12-02T05:35:05.938Z,9.17
2018-12-02T05:36:05.917Z,9.15
2018-12-02T05:37:05.968Z,9.20
2018-12-02T05:38:05.893Z,9.21
2018-12-02T05:39:05.881Z,9.23
2018-12-02T05:40:05.869Z,9.20
2018-12-02T05:41:05.961Z,9.18
2018-12-02T05:42:05.920Z,9.21
2018-12-02T05:43:05.839Z,9.23
2018-12-02T05:44:05.839Z,9.26
2018-12-02T05:45:05.817Z,9.28
2018-12-02T05:46:05.809Z,9.26
2018-12-02T05:47:05.864Z,9.28
2018-12-02T05:48:05.791Z,9.31
2018-12-02T05:49:05.788Z,9.24
2018-12-02T05:50:05.761Z,9.26
2018-12-02T05:51:06.290Z,9.32
2018-12-02T05:52:05.741Z,9.28
2018-12-02T05:53:05.799Z,9.28
2018-12-02T05:54:05.725Z,9.35
2018-12-02T05:55:05.735Z,9.36
2018-12-02T05:56:05.713Z,9.28
2018-12-02T05:57:05.694Z,9.32
2018-12-02T05:58:05.747Z,9.32
2018-12-02T05:59:05.665Z,9.31
2018-12-02T06:00:05.657Z,9.24
2018-12-02T06:01:05.646Z,9.31
2018-12-02T06:02:05.636Z,9.31
2018-12-02T06:03:05.699Z,9.24
2018-12-02T06:04:05.613Z,9.31
2018-12-02T06:05:05.601Z,9.32
2018-12-02T06:06:05.590Z,9.36
2018-12-02T06:07:05.580Z,9.35
2018-12-02T06:08:05.744Z,9.35
2018-12-02T06:09:05.562Z,9.43
2018-12-02T06:10:05.553Z,9.35
2018-12-02T06:11:05.536Z,9.38
2018-12-02T06:12:06.295Z,9.39
2018-12-02T06:13:05.637Z,9.36
2018-12-02T06:14:05.506Z,9.39
2018-12-02T06:15:05.502Z,9.42
2018-12-02T06:16:05.485Z,9.40
2018-12-02T06:17:05.472Z,9.39
2018-12-02T06:18:05.532Z,9.38
2018-12-02T06:19:05.449Z,9.46
2018-12-02T06:20:05.452Z,9.40
2018-12-02T06:21:05.431Z,9.38
2018-12-02T06:22:05.417Z,9.36
2018-12-02T06:23:05.477Z,9.42
2018-12-02T06:24:05.407Z,9.43
2018-12-02T06:25:05.388Z,9.47
2018-12-02T06:26:05.386Z,9.40
2018-12-02T06:27:05.366Z,9.51
2018-12-02T06:28:05.431Z,9.46
2018-12-02T06:29:05.342Z,9.46
2018-12-02T06:30:05.330Z,9.42
2018-12-02T06:31:05.327Z,9.43
2018-12-02T06:32:05.315Z,9.46
2018-12-02T06:33:05.859Z,9.54
2018-12-02T06:34:05.305Z,9.54
2018-12-02T06:35:05.280Z,9.51
2018-12-02T06:36:05.268Z,9.54
2018-12-02T06:37:05.254Z,9.51
2018-12-02T06:38:05.313Z,9.56
2018-12-02T06:39:05.234Z,9.57
2018-12-02T06:40:05.228Z,9.53
2018-12-02T06:41:05.786Z,9.56
2018-12-02T06:42:05.205Z,9.56
2018-12-02T06:43:05.256Z,9.51
2018-12-02T06:44:05.183Z,9.54
2018-12-02T06:45:05.175Z,9.56
2018-12-02T06:46:05.155Z,9.56
2018-12-02T06:47:05.154Z,9.64
2018-12-02T06:48:05.216Z,9.69
2018-12-02T06:49:05.141Z,9.57
2018-12-02T06:50:05.137Z,9.54
2018-12-02T06:51:05.102Z,9.51
2018-12-02T06:52:05.112Z,9.56
2018-12-02T06:53:05.144Z,9.57
2018-12-02T06:54:05.790Z,9.64
2018-12-02T06:55:05.080Z,9.71
2018-12-02T06:56:05.053Z,9.60
2018-12-02T06:57:05.041Z,9.60
2018-12-02T06:58:05.104Z,9.66
2018-12-02T06:59:05.018Z,9.60
2018-12-02T07:00:05.027Z,9.64
2018-12-02T07:01:04.999Z,9.68
2018-12-02T07:02:04.994Z,9.65
2018-12-02T07:03:05.040Z,9.68
2018-12-02T07:04:04.967Z,9.69
2018-12-02T07:05:04.953Z,9.74
2018-12-02T07:06:04.950Z,9.64
2018-12-02T07:07:04.946Z,9.71
2018-12-02T07:08:04.988Z,9.68
2018-12-02T07:09:04.911Z,9.75
2018-12-02T07:10:04.909Z,9.65
2018-12-02T07:11:04.895Z,9.75
2018-12-02T07:12:04.883Z,9.71
2018-12-02T07:13:04.945Z,9.75
2018-12-02T07:14:04.860Z,9.72
2018-12-02T07:15:05.778Z,9.72
2018-12-02T07:16:04.836Z,9.71
2018-12-02T07:17:04.824Z,9.69
2018-12-02T07:18:04.815Z,9.69
2018-12-02T07:19:04.867Z,9.69
2018-12-02T07:20:04.868Z,9.72
2018-12-02T07:21:04.786Z,9.72
2018-12-02T07:22:04.776Z,9.69
2018-12-02T07:23:04.773Z,9.69
2018-12-02T07:24:04.819Z,9.78
2018-12-02T07:25:04.738Z,9.69
2018-12-02T07:26:04.737Z,9.75
2018-12-02T07:27:04.721Z,9.74
2018-12-02T07:28:04.714Z,9.74
2018-12-02T07:29:04.775Z,9.78
2018-12-02T07:30:04.687Z,9.79
2018-12-02T07:31:04.678Z,9.79
2018-12-02T07:32:04.672Z,9.72
2018-12-02T07:33:04.657Z,9.89
2018-12-02T07:34:04.711Z,9.81
2018-12-02T07:35:04.636Z,9.84
2018-12-02T07:36:05.280Z,9.87
2018-12-02T07:37:04.615Z,9.79
2018-12-02T07:38:04.597Z,9.86
2018-12-02T07:39:04.655Z,9.86
2018-12-02T07:40:04.580Z,9.86
2018-12-02T07:41:04.571Z,9.89
2018-12-02T07:42:04.559Z,9.84
2018-12-02T07:43:04.550Z,9.90
2018-12-02T07:44:04.607Z,9.91
2018-12-02T07:45:04.527Z,9.94
2018-12-02T07:46:04.518Z,9.86
2018-12-02T07:47:04.503Z,9.86
2018-12-02T07:48:04.499Z,9.87
2018-12-02T07:49:04.545Z,9.86
2018-12-02T07:50:04.476Z,9.93
2018-12-02T07:51:04.467Z,9.84
2018-12-02T07:52:04.457Z,9.94
2018-12-02T07:53:04.445Z,9.93
2018-12-02T07:54:04.495Z,9.96
2018-12-02T07:55:04.416Z,9.89
2018-12-02T07:56:04.407Z,9.96
2018-12-02T07:57:05.273Z,9.93
2018-12-02T07:58:04.387Z,9.93
2018-12-02T07:59:04.438Z,10.01
2018-12-02T08:00:04.363Z,9.97
2018-12-02T08:01:04.353Z,10.04
2018-12-02T08:02:04.347Z,10.04
2018-12-02T08:03:04.333Z,10.01
2018-12-02T08:04:04.392Z,9.97
2018-12-02T08:05:04.314Z,10.07
2018-12-02T08:06:04.364Z,9.97
2018-12-02T08:07:04.294Z,10.02
2018-12-02T08:08:04.282Z,10.04
2018-12-02T08:09:04.273Z,10.02
2018-12-02T08:10:04.327Z,10.07
2018-12-02T08:11:04.252Z,10.04
2018-12-02T08:12:04.235Z,10.05
2018-12-02T08:13:04.223Z,10.07
2018-12-02T08:14:04.216Z,10.15
2018-12-02T08:15:04.265Z,10.01
2018-12-02T08:16:04.193Z,10.07
2018-12-02T08:17:04.189Z,10.05
2018-12-02T08:18:04.775Z,10.08
2018-12-02T08:19:04.157Z,10.14
2018-12-02T08:20:04.217Z,10.08
2018-12-02T08:21:04.135Z,10.09
2018-12-02T08:22:04.127Z,10.08
2018-12-02T08:23:04.116Z,10.17
2018-12-02T08:24:04.106Z,10.15
2018-12-02T08:25:04.160Z,10.14
2018-12-02T08:26:04.088Z,10.18
2018-12-02T08:27:04.073Z,10.20
2018-12-02T08:28:04.062Z,10.14
2018-12-02T08:29:04.050Z,10.15
2018-12-02T08:30:04.112Z,10.12
2018-12-02T08:31:04.095Z,10.17
2018-12-02T08:32:04.025Z,10.14
2018-12-02T08:33:04.010Z,10.26
2018-12-02T08:34:04.005Z,10.29
2018-12-02T08:35:03.989Z,10.32
2018-12-02T08:36:04.041Z,10.27
2018-12-02T08:37:03.975Z,10.34
2018-12-02T08:38:03.951Z,10.26
2018-12-02T08:39:04.769Z,10.23
2018-12-02T08:40:03.930Z,10.27
2018-12-02T08:41:03.987Z,10.30
2018-12-02T08:42:03.920Z,10.32
2018-12-02T08:43:03.903Z,10.27
2018-12-02T08:44:03.894Z,10.27
2018-12-02T08:45:03.876Z,10.23
2018-12-02T08:46:03.931Z,10.27
2018-12-02T08:47:03.853Z,10.34
2018-12-02T08:48:03.849Z,10.30
2018-12-02T08:49:03.834Z,10.30
2018-12-02T08:50:03.828Z,10.34
2018-12-02T08:51:03.878Z,10.34
2018-12-02T08:52:03.803Z,10.40
2018-12-02T08:53:03.798Z,10.33
2018-12-02T08:54:03.781Z,10.32
2018-12-02T08:55:03.770Z,10.32
2018-12-02T08:56:03.827Z,10.33
2018-12-02T08:57:03.749Z,10.36
2018-12-02T08:58:03.739Z,10.36
2018-12-02T08:59:03.731Z,10.34
2018-12-02T09:00:04.266Z,10.40
2018-12-02T09:01:03.776Z,10.33
2018-12-02T09:02:04.265Z,10.32
2018-12-02T09:03:03.694Z,10.30
2018-12-02T09:04:03.674Z,10.40
2018-12-02T09:05:03.667Z,10.36
2018-12-02T09:06:03.722Z,10.44
2018-12-02T09:07:03.640Z,10.40
2018-12-02T09:08:03.629Z,10.40
2018-12-02T09:09:03.626Z,10.53
2018-12-02T09:10:03.609Z,10.45
2018-12-02T09:11:03.669Z,10.51
2018-12-02T09:12:03.585Z,10.45
2018-12-02T09:13:03.579Z,10.47
2018-12-02T09:14:03.562Z,10.52
2018-12-02T09:15:03.560Z,10.47
2018-12-02T09:16:03.543Z,10.53
2018-12-02T09:17:03.595Z,10.61
2018-12-02T09:18:03.525Z,10.64
2018-12-02T09:19:03.511Z,10.60
2018-12-02T09:20:03.499Z,10.60
2018-12-02T09:21:04.269Z,10.66
2018-12-02T09:22:03.552Z,10.68
2018-12-02T09:23:03.520Z,10.73
2018-12-02T09:24:03.462Z,10.79
2018-12-02T09:25:03.467Z,10.78
2018-12-02T09:26:03.454Z,10.74
2018-12-02T09:27:03.491Z,10.78
2018-12-02T09:28:03.417Z,10.74
2018-12-02T09:29:03.406Z,10.82
2018-12-02T09:30:03.418Z,10.81
2018-12-02T09:31:03.388Z,10.82
2018-12-02T09:32:03.466Z,10.85
2018-12-02T09:33:03.365Z,10.88
2018-12-02T09:34:03.353Z,10.89
2018-12-02T09:35:03.341Z,10.96
2018-12-02T09:36:03.349Z,10.91
2018-12-02T09:37:03.403Z,10.92
2018-12-02T09:38:03.308Z,10.97
2018-12-02T09:39:03.302Z,10.97
2018-12-02T09:40:03.285Z,10.99
2018-12-02T09:41:03.286Z,11.06
2018-12-02T09:42:06.358Z,11.11
2018-12-02T09:43:03.264Z,11.15
2018-12-02T09:44:03.246Z,11.19
2018-12-02T09:45:03.284Z,11.19
2018-12-02T09:46:03.226Z,11.28
2018-12-02T09:47:03.210Z,11.27
2018-12-02T09:48:03.267Z,11.28
2018-12-02T09:49:54.947Z,11.27
2018-12-02T09:50:54.140Z,11.29
2018-12-02T09:51:54.178Z,11.37
2018-12-02T09:52:54.116Z,11.40
2018-12-02T09:53:54.038Z,11.40
2018-12-02T09:54:54.080Z,11.32
2018-12-02T09:55:54.033Z,11.35
2018-12-02T09:56:54.009Z,11.25
2018-12-02T09:57:54.063Z,11.32
2018-12-02T09:58:53.985Z,11.27
2018-12-02T09:59:53.973Z,11.40
2018-12-02T10:00:53.985Z,11.39
2018-12-02T10:01:53.971Z,11.29
2018-12-02T10:02:57.264Z,11.37
2018-12-02T10:03:53.936Z,11.40
2018-12-02T10:04:53.944Z,11.42
2018-12-02T10:05:53.968Z,11.44
2018-12-02T10:07:44.630Z,11.49
2018-12-02T10:08:44.383Z,11.54
2018-12-02T10:09:44.341Z,11.55
2018-12-02T10:10:44.298Z,11.55
2018-12-02T10:11:45.959Z,11.58
2018-12-02T10:12:44.187Z,11.54
2018-12-02T10:13:44.239Z,11.61
2018-12-02T10:14:44.161Z,11.57
2018-12-02T10:15:44.191Z,11.55
2018-12-02T10:16:44.139Z,11.64
2018-12-02T10:17:44.252Z,11.60
2018-12-02T10:20:16.908Z,11.70
2018-12-02T10:21:12.501Z,11.64
2018-12-02T10:22:33.909Z,11.62
2018-12-02T10:23:12.922Z,11.65
2018-12-02T10:24:21.428Z,11.70
2018-12-02T10:25:12.562Z,11.65
2018-12-02T10:27:34.481Z,11.78
2018-12-02T10:29:01.361Z,11.80
2018-12-02T10:29:29.693Z,11.88
2018-12-02T10:30:30.325Z,11.95
2018-12-02T10:33:49.687Z,12.10
2018-12-02T10:34:49.450Z,12.09
2018-12-02T10:35:48.954Z,12.05
2018-12-02T10:36:48.944Z,12.17
2018-12-02T10:37:48.887Z,12.07
2018-12-02T10:38:57.956Z,12.07
2018-12-02T10:39:50.101Z,11.98
2018-12-02T10:40:49.030Z,12.05
2018-12-02T10:41:59.963Z,12.09
2018-12-02T10:42:48.962Z,12.16
2018-12-02T10:43:58.465Z,12.02
2018-12-02T10:46:08.821Z,12.09
2018-12-02T10:48:20.673Z,12.10
2018-12-02T10:49:39.560Z,12.05
2018-12-02T10:50:23.246Z,12.16
2018-12-02T10:51:21.271Z,12.10
2018-12-02T10:53:34.861Z,12.14
2018-12-02T10:54:41.887Z,12.20
2018-12-02T10:55:32.831Z,12.19
2018-12-02T10:56:32.775Z,12.24
2018-12-02T10:57:32.715Z,12.24
2018-12-02T10:58:32.642Z,12.19
2018-12-02T10:59:32.662Z,12.17
2018-12-02T11:00:32.576Z,12.37
2018-12-02T11:01:32.634Z,12.34
2018-12-02T11:02:33.340Z,12.41
2018-12-02T11:04:45.261Z,12.60
2018-12-02T11:05:44.956Z,12.83
2018-12-02T11:06:44.969Z,12.86
2018-12-02T11:07:44.796Z,12.83
2018-12-02T11:08:44.886Z,12.87
2018-12-02T11:09:44.782Z,12.89
2018-12-02T11:10:44.773Z,12.85
2018-12-02T11:11:45.083Z,12.90
2018-12-02T11:12:44.755Z,12.89
2018-12-02T11:13:44.827Z,12.90
2018-12-02T11:14:44.753Z,12.92
2018-12-02T11:15:44.762Z,12.87
2018-12-02T11:18:11.921Z,12.89
2018-12-02T11:19:08.105Z,12.90
2018-12-02T11:20:08.024Z,12.96
2018-12-02T11:21:07.920Z,13.00
2018-12-02T11:22:08.748Z,13.04
2018-12-02T11:24:25.051Z,13.08
2018-12-02T11:25:23.831Z,13.28
2018-12-02T11:26:23.111Z,13.20
2018-12-02T11:27:23.018Z,13.33
2018-12-02T11:28:23.021Z,13.29
2018-12-02T11:29:31.925Z,13.23
2018-12-02T11:30:23.097Z,13.33
2018-12-02T11:31:23.065Z,13.41
2018-12-02T11:32:23.011Z,13.41
2018-12-02T11:33:23.863Z,13.55
2018-12-02T11:34:31.879Z,13.67
2018-12-02T11:35:23.033Z,13.71
2018-12-02T11:36:22.963Z,13.73
2018-12-02T11:37:22.897Z,13.70
2018-12-02T11:38:23.842Z,13.77
2018-12-02T11:40:46.417Z,13.79
2018-12-02T11:43:28.770Z,13.96
2018-12-02T11:44:14.311Z,14.00
2018-12-02T11:47:36.935Z,14.25
2018-12-02T11:49:34.086Z,14.17
2018-12-02T11:50:38.224Z,14.17
2018-12-02T11:51:33.141Z,14.10
2018-12-02T11:52:34.145Z,14.06
2018-12-02T11:53:34.739Z,14.03
2018-12-02T11:54:45.345Z,13.99
2018-12-02T11:55:34.759Z,14.00
2018-12-02T11:56:34.626Z,14.02
2018-12-02T11:58:31.285Z,14.02
2018-12-02T14:29:08.784Z,14.95
2018-12-02T14:34:05.206Z,14.88
2018-12-02T14:37:47.673Z,14.88
2018-12-02T14:38:51.038Z,14.81
2018-12-02T14:39:42.899Z,14.83
2018-12-02T14:42:27.690Z,14.86
2018-12-02T14:49:13.410Z,14.80
2018-12-02T14:51:48.435Z,14.83
2018-12-02T14:57:37.697Z,14.75
2018-12-02T15:00:05.264Z,14.69
2018-12-02T15:09:10.803Z,14.73
2018-12-02T15:12:18.914Z,14.68
2018-12-02T15:13:42.594Z,14.69
2018-12-02T15:18:36.185Z,14.61
2018-12-02T15:26:19.413Z,14.43
2018-12-02T15:28:42.242Z,14.36
2018-12-02T15:29:41.578Z,14.36
2018-12-02T15:33:31.496Z,14.47
2018-12-02T15:34:30.932Z,14.39
2018-12-02T15:36:36.668Z,14.35
2018-12-02T15:37:34.478Z,14.25
2018-12-02T15:38:35.298Z,14.37
2018-12-02T15:40:02.057Z,14.27
2018-12-02T15:42:03.991Z,14.33
2018-12-02T15:43:04.955Z,14.35
2018-12-02T15:59:55.862Z,14.21
2018-12-02T16:01:53.620Z,14.21
2018-12-02T16:03:20.209Z,14.25
2018-12-02T16:05:10.136Z,14.22
2018-12-02T16:06:09.936Z,14.28
2018-12-02T16:07:33.953Z,14.22
2018-12-02T16:08:10.303Z,14.28
2018-12-02T16:09:27.921Z,14.24
2018-12-02T16:14:20.286Z,14.35
2018-12-02T16:15:34.085Z,14.35
2018-12-02T16:16:20.191Z,14.37
2018-12-02T16:17:20.913Z,14.27
2018-12-02T16:20:23.976Z,14.35
2018-12-02T16:21:22.862Z,14.32
2018-12-02T16:22:22.795Z,14.27
2018-12-02T16:23:22.769Z,14.29
2018-12-02T16:24:22.962Z,14.29
2018-12-02T16:25:22.817Z,14.25
2018-12-02T16:26:22.898Z,14.21
2018-12-02T16:27:23.752Z,14.24
2018-12-02T16:28:22.808Z,14.20
2018-12-02T16:29:22.769Z,14.21
2018-12-02T16:32:56.345Z,14.17
2018-12-02T16:36:35.249Z,14.20
2018-12-02T16:38:38.932Z,14.18
2018-12-02T16:39:38.668Z,14.17
2018-12-02T16:40:39.791Z,14.20
2018-12-02T16:42:33.311Z,14.18
2018-12-02T16:43:33.640Z,14.17
2018-12-02T16:44:33.161Z,14.15
2018-12-02T16:45:32.935Z,14.17
2018-12-02T16:46:32.913Z,14.14
2018-12-02T16:47:32.871Z,14.17
2018-12-02T16:48:32.997Z,14.14
2018-12-02T16:49:32.864Z,14.09
2018-12-02T16:50:32.930Z,14.15
2018-12-02T16:51:32.840Z,14.15
2018-12-02T16:52:32.834Z,14.09
2018-12-02T16:53:32.820Z,14.03
2018-12-02T16:54:32.924Z,14.09
2018-12-02T16:56:44.622Z,14.04
2018-12-02T16:57:44.386Z,14.10
2018-12-02T16:58:44.237Z,14.02
2018-12-02T16:59:44.387Z,14.07
2018-12-02T17:00:51.793Z,14.04
2018-12-02T17:01:44.123Z,14.02
2018-12-02T17:02:44.164Z,14.02
2018-12-02T17:03:44.134Z,14.10
2018-12-02T17:04:44.734Z,14.06
2018-12-02T17:05:44.312Z,14.04
2018-12-02T17:06:56.702Z,14.07
2018-12-02T17:07:44.522Z,13.97
2018-12-02T17:08:44.192Z,13.96
2018-12-02T17:09:44.162Z,13.92
2018-12-02T17:10:50.488Z,13.99
2018-12-02T17:11:45.732Z,13.99
2018-12-02T17:14:58.338Z,13.97
2018-12-02T17:17:16.086Z,13.96
2018-12-02T17:18:17.330Z,13.99
2018-12-02T17:19:15.532Z,14.03
2018-12-02T17:20:15.432Z,14.03
2018-12-02T17:21:15.547Z,13.97
2018-12-02T17:22:15.921Z,13.89
2018-12-02T17:23:15.272Z,14.04
2018-12-02T17:24:15.282Z,13.97
2018-12-02T17:25:15.244Z,14.02
2018-12-02T17:26:15.325Z,14.00
2018-12-02T17:27:15.263Z,13.88
2018-12-02T17:28:15.205Z,14.04
2018-12-02T17:29:26.115Z,13.91
2018-12-02T17:30:15.485Z,13.87
2018-12-02T17:31:15.407Z,13.92
2018-12-02T17:32:15.395Z,13.95
2018-12-02T17:33:15.271Z,14.09
2018-12-02T17:34:15.195Z,14.02